sensor_id;sensor_type;location;lat;lon;timestamp;P1;durP1;ratioP1;P2;durP2;ratioP2
34521;SDS011;25561;48.888;8.736;2023-06-26T05:31:32;8.80;;;6.93;;
34521;SDS011;25561;48.888;8.736;2023-06-26T05:34:36;13.82;;;7.18;;
34521;SDS011;25561;48.888;8.736;2023-06-26T05:37:39;9.82;;;6.93;;
34521;SDS011;25561;48.888;8.736;2023-06-26T05:40:42;15.80;;;7.90;;
34521;SDS011;25561;48.888;8.736;2023-06-26T05:43:44;12.88;;;7.55;;
34521;SDS011;25561;48.888;8.736;2023-06-26T05:46:46;9.10;;;7.00;;
34521;SDS011;25561;48.888;8.736;2023-06-26T05:49:48;11.20;;;7.40;;
34521;SDS011;25561;48.888;8.736;2023-06-26T05:52:50;13.85;;;8.45;;
34521;SDS011;25561;48.888;8.736;2023-06-26T05:55:52;8.52;;;7.03;;
34521;SDS011;25561;48.888;8.736;2023-06-26T05:58:54;14.02;;;7.97;;
34521;SDS011;25561;48.888;8.736;2023-06-26T06:01:57;13.52;;;7.22;;
34521;SDS011;25561;48.888;8.736;2023-06-26T06:05:00;11.02;;;8.57;;
34521;SDS011;25561;48.888;8.736;2023-06-26T06:08:02;9.52;;;7.20;;
34521;SDS011;25561;48.888;8.736;2023-06-26T06:11:05;14.40;;;8.60;;
34521;SDS011;25561;48.888;8.736;2023-06-26T06:49:48;8.30;;;6.97;;
34521;SDS011;25561;48.888;8.736;2023-06-26T06:52:50;7.32;;;5.90;;
34521;SDS011;25561;48.888;8.736;2023-06-26T06:55:52;11.27;;;7.32;;
34521;SDS011;25561;48.888;8.736;2023-06-26T06:58:54;10.13;;;6.80;;
34521;SDS011;25561;48.888;8.736;2023-06-26T07:01:56;15.10;;;6.70;;
34521;SDS011;25561;48.888;8.736;2023-06-26T07:04:59;9.80;;;7.03;;
34521;SDS011;25561;48.888;8.736;2023-06-26T07:08:03;11.35;;;6.30;;
34521;SDS011;25561;48.888;8.736;2023-06-26T07:11:05;7.60;;;6.68;;
34521;SDS011;25561;48.888;8.736;2023-06-26T07:14:08;8.02;;;6.88;;
34521;SDS011;25561;48.888;8.736;2023-06-26T07:20:14;9.18;;;6.22;;
34521;SDS011;25561;48.888;8.736;2023-06-26T07:23:19;12.65;;;6.25;;
34521;SDS011;25561;48.888;8.736;2023-06-26T07:26:21;8.35;;;6.32;;
34521;SDS011;25561;48.888;8.736;2023-06-26T07:29:40;6.97;;;6.07;;
34521;SDS011;25561;48.888;8.736;2023-06-26T07:32:44;8.18;;;5.72;;
34521;SDS011;25561;48.888;8.736;2023-06-26T07:35:47;7.47;;;5.20;;
34521;SDS011;25561;48.888;8.736;2023-06-26T07:38:49;6.93;;;5.40;;
34521;SDS011;25561;48.888;8.736;2023-06-26T07:41:51;11.85;;;6.18;;
34521;SDS011;25561;48.888;8.736;2023-06-26T07:44:53;8.07;;;6.60;;
34521;SDS011;25561;48.888;8.736;2023-06-26T07:47:55;10.38;;;5.97;;
34521;SDS011;25561;48.888;8.736;2023-06-26T07:50:57;9.68;;;5.68;;
34521;SDS011;25561;48.888;8.736;2023-06-26T07:54:00;7.28;;;5.47;;
34521;SDS011;25561;48.888;8.736;2023-06-26T07:57:04;6.32;;;5.47;;
34521;SDS011;25561;48.888;8.736;2023-06-26T08:00:10;8.60;;;5.30;;
34521;SDS011;25561;48.888;8.736;2023-06-26T08:03:13;7.18;;;5.78;;
34521;SDS011;25561;48.888;8.736;2023-06-26T08:06:31;7.68;;;5.25;;
34521;SDS011;25561;48.888;8.736;2023-06-26T08:09:40;6.35;;;5.55;;
34521;SDS011;25561;48.888;8.736;2023-06-26T08:15:48;9.98;;;5.22;;
34521;SDS011;25561;48.888;8.736;2023-06-26T08:19:01;7.65;;;5.75;;
34521;SDS011;25561;48.888;8.736;2023-06-26T08:22:04;17.13;;;5.80;;
34521;SDS011;25561;48.888;8.736;2023-06-26T08:25:08;6.13;;;5.32;;
34521;SDS011;25561;48.888;8.736;2023-06-26T08:28:11;8.65;;;5.80;;
34521;SDS011;25561;48.888;8.736;2023-06-26T08:31:14;7.82;;;5.47;;
34521;SDS011;25561;48.888;8.736;2023-06-26T08:34:16;7.45;;;6.30;;
34521;SDS011;25561;48.888;8.736;2023-06-26T08:37:19;8.02;;;6.35;;
34521;SDS011;25561;48.888;8.736;2023-06-26T08:40:21;8.20;;;5.93;;
34521;SDS011;25561;48.888;8.736;2023-06-26T08:43:23;6.50;;;5.80;;
34521;SDS011;25561;48.888;8.736;2023-06-26T08:46:28;9.95;;;5.47;;
34521;SDS011;25561;48.888;8.736;2023-06-26T08:49:34;13.63;;;7.43;;
34521;SDS011;25561;48.888;8.736;2023-06-26T08:52:51;7.40;;;6.53;;
34521;SDS011;25561;48.888;8.736;2023-06-26T08:56:00;6.47;;;5.85;;
34521;SDS011;25561;48.888;8.736;2023-06-26T08:59:04;12.57;;;8.52;;
34521;SDS011;25561;48.888;8.736;2023-06-26T09:02:08;8.55;;;6.60;;
34521;SDS011;25561;48.888;8.736;2023-06-26T09:05:12;7.53;;;6.63;;
34521;SDS011;25561;48.888;8.736;2023-06-26T09:08:15;15.05;;;7.07;;
34521;SDS011;25561;48.888;8.736;2023-06-26T09:11:17;9.18;;;6.35;;
34521;SDS011;25561;48.888;8.736;2023-06-26T09:14:19;7.88;;;6.95;;
34521;SDS011;25561;48.888;8.736;2023-06-26T09:17:26;11.60;;;6.75;;
34521;SDS011;25561;48.888;8.736;2023-06-26T09:20:31;10.82;;;6.20;;
34521;SDS011;25561;48.888;8.736;2023-06-26T09:23:36;17.05;;;7.10;;
34521;SDS011;25561;48.888;8.736;2023-06-26T09:26:38;9.75;;;6.57;;
34521;SDS011;25561;48.888;8.736;2023-06-26T09:29:41;9.68;;;6.70;;
34521;SDS011;25561;48.888;8.736;2023-06-26T09:32:43;16.92;;;6.53;;
34521;SDS011;25561;48.888;8.736;2023-06-26T09:35:46;9.05;;;6.93;;
34521;SDS011;25561;48.888;8.736;2023-06-26T09:38:49;10.73;;;6.65;;
34521;SDS011;25561;48.888;8.736;2023-06-26T09:41:55;8.73;;;6.90;;
34521;SDS011;25561;48.888;8.736;2023-06-26T09:45:07;9.65;;;6.53;;
34521;SDS011;25561;48.888;8.736;2023-06-26T09:48:18;10.77;;;6.38;;
34521;SDS011;25561;48.888;8.736;2023-06-26T09:51:22;10.85;;;6.43;;
34521;SDS011;25561;48.888;8.736;2023-06-26T09:54:24;12.45;;;6.22;;
34521;SDS011;25561;48.888;8.736;2023-06-26T09:57:28;10.90;;;6.60;;
34521;SDS011;25561;48.888;8.736;2023-06-26T10:00:31;11.55;;;6.80;;
34521;SDS011;25561;48.888;8.736;2023-06-26T10:03:40;9.85;;;6.70;;
34521;SDS011;25561;48.888;8.736;2023-06-26T10:06:46;13.80;;;6.80;;
34521;SDS011;25561;48.888;8.736;2023-06-26T10:09:52;9.38;;;6.75;;
34521;SDS011;25561;48.888;8.736;2023-06-26T10:13:04;8.32;;;7.05;;
34521;SDS011;25561;48.888;8.736;2023-06-26T10:16:23;8.27;;;6.25;;
34521;SDS011;25561;48.888;8.736;2023-06-26T10:19:29;9.10;;;6.83;;
34521;SDS011;25561;48.888;8.736;2023-06-26T10:22:40;9.65;;;6.63;;
34521;SDS011;25561;48.888;8.736;2023-06-26T10:28:52;9.45;;;6.82;;
34521;SDS011;25561;48.888;8.736;2023-06-26T10:31:56;10.88;;;6.10;;
34521;SDS011;25561;48.888;8.736;2023-06-26T10:35:05;7.43;;;6.57;;
34521;SDS011;25561;48.888;8.736;2023-06-26T10:38:08;8.35;;;6.65;;
34521;SDS011;25561;48.888;8.736;2023-06-26T10:41:10;16.25;;;6.63;;
34521;SDS011;25561;48.888;8.736;2023-06-26T10:44:17;7.18;;;6.47;;
34521;SDS011;25561;48.888;8.736;2023-06-26T10:47:29;7.85;;;6.65;;
34521;SDS011;25561;48.888;8.736;2023-06-26T10:50:38;12.70;;;6.22;;
34521;SDS011;25561;48.888;8.736;2023-06-26T10:53:40;7.60;;;6.60;;
34521;SDS011;25561;48.888;8.736;2023-06-26T10:56:48;16.70;;;6.22;;
34521;SDS011;25561;48.888;8.736;2023-06-26T11:00:07;10.85;;;6.60;;
34521;SDS011;25561;48.888;8.736;2023-06-26T11:03:22;9.70;;;6.88;;
34521;SDS011;25561;48.888;8.736;2023-06-26T11:06:24;15.30;;;7.38;;
34521;SDS011;25561;48.888;8.736;2023-06-26T11:09:26;8.60;;;6.10;;
34521;SDS011;25561;48.888;8.736;2023-06-26T11:15:42;10.30;;;6.68;;
34521;SDS011;25561;48.888;8.736;2023-06-26T11:18:45;11.38;;;7.07;;
34521;SDS011;25561;48.888;8.736;2023-06-26T11:21:47;7.50;;;5.68;;
34521;SDS011;25561;48.888;8.736;2023-06-26T11:24:51;13.45;;;6.03;;
34521;SDS011;25561;48.888;8.736;2023-06-26T11:27:55;15.38;;;7.20;;
34521;SDS011;25561;48.888;8.736;2023-06-26T11:30:57;11.40;;;6.13;;
34521;SDS011;25561;48.888;8.736;2023-06-26T11:33:59;12.18;;;6.75;;
34521;SDS011;25561;48.888;8.736;2023-06-26T11:37:01;11.32;;;7.07;;
34521;SDS011;25561;48.888;8.736;2023-06-26T11:40:16;15.20;;;6.97;;
34521;SDS011;25561;48.888;8.736;2023-06-26T11:43:22;13.27;;;7.10;;
34521;SDS011;25561;48.888;8.736;2023-06-26T11:46:26;7.93;;;6.55;;
34521;SDS011;25561;48.888;8.736;2023-06-26T11:49:28;11.38;;;5.70;;
34521;SDS011;25561;48.888;8.736;2023-06-26T11:52:32;10.25;;;6.32;;
34521;SDS011;25561;48.888;8.736;2023-06-26T11:55:40;7.78;;;5.95;;
34521;SDS011;25561;48.888;8.736;2023-06-26T11:59:00;10.25;;;5.82;;
34521;SDS011;25561;48.888;8.736;2023-06-26T12:02:07;10.15;;;5.95;;
34521;SDS011;25561;48.888;8.736;2023-06-26T12:05:10;9.02;;;6.03;;
34521;SDS011;25561;48.888;8.736;2023-06-26T12:08:17;13.20;;;5.75;;
34521;SDS011;25561;48.888;8.736;2023-06-26T12:11:19;9.55;;;6.15;;
34521;SDS011;25561;48.888;8.736;2023-06-26T12:14:24;7.43;;;5.55;;
34521;SDS011;25561;48.888;8.736;2023-06-26T12:17:29;9.57;;;5.82;;
34521;SDS011;25561;48.888;8.736;2023-06-26T12:20:31;8.55;;;5.80;;
34521;SDS011;25561;48.888;8.736;2023-06-26T12:23:38;8.90;;;5.07;;
34521;SDS011;25561;48.888;8.736;2023-06-26T12:26:44;9.18;;;4.75;;
34521;SDS011;25561;48.888;8.736;2023-06-26T12:29:51;8.20;;;5.13;;
34521;SDS011;25561;48.888;8.736;2023-06-26T12:32:54;12.00;;;5.20;;
34521;SDS011;25561;48.888;8.736;2023-06-26T12:35:56;9.05;;;5.20;;
34521;SDS011;25561;48.888;8.736;2023-06-26T12:39:00;10.00;;;5.55;;
34521;SDS011;25561;48.888;8.736;2023-06-26T12:42:02;15.27;;;5.47;;
34521;SDS011;25561;48.888;8.736;2023-06-26T12:45:10;7.65;;;5.43;;
34521;SDS011;25561;48.888;8.736;2023-06-26T12:48:40;7.78;;;5.13;;
34521;SDS011;25561;48.888;8.736;2023-06-26T12:51:48;9.35;;;4.53;;
34521;SDS011;25561;48.888;8.736;2023-06-26T12:54:54;8.50;;;4.85;;
34521;SDS011;25561;48.888;8.736;2023-06-26T12:57:57;6.10;;;4.57;;
34521;SDS011;25561;48.888;8.736;2023-06-26T13:00:59;10.35;;;4.80;;
34521;SDS011;25561;48.888;8.736;2023-06-26T13:04:05;9.18;;;4.68;;
34521;SDS011;25561;48.888;8.736;2023-06-26T13:07:07;16.85;;;5.07;;
34521;SDS011;25561;48.888;8.736;2023-06-26T13:10:09;6.00;;;3.80;;
34521;SDS011;25561;48.888;8.736;2023-06-26T13:13:11;5.85;;;3.40;;
34521;SDS011;25561;48.888;8.736;2023-06-26T13:16:13;6.60;;;4.03;;
34521;SDS011;25561;48.888;8.736;2023-06-26T13:19:15;6.47;;;3.95;;
34521;SDS011;25561;48.888;8.736;2023-06-26T13:22:16;7.43;;;4.10;;
34521;SDS011;25561;48.888;8.736;2023-06-26T13:25:18;5.88;;;4.00;;
34521;SDS011;25561;48.888;8.736;2023-06-26T13:28:20;4.95;;;3.60;;
34521;SDS011;25561;48.888;8.736;2023-06-26T13:31:22;8.75;;;3.70;;
34521;SDS011;25561;48.888;8.736;2023-06-26T13:34:24;7.93;;;3.88;;
34521;SDS011;25561;48.888;8.736;2023-06-26T13:40:30;10.77;;;4.50;;
34521;SDS011;25561;48.888;8.736;2023-06-26T13:43:31;6.38;;;4.25;;
34521;SDS011;25561;48.888;8.736;2023-06-26T13:46:34;8.88;;;4.15;;
34521;SDS011;25561;48.888;8.736;2023-06-26T13:49:36;9.30;;;4.40;;
34521;SDS011;25561;48.888;8.736;2023-06-26T13:52:38;6.80;;;3.92;;
34521;SDS011;25561;48.888;8.736;2023-06-26T13:55:40;9.00;;;4.32;;
34521;SDS011;25561;48.888;8.736;2023-06-26T13:58:42;8.85;;;3.70;;
34521;SDS011;25561;48.888;8.736;2023-06-26T14:01:44;9.73;;;4.93;;
34521;SDS011;25561;48.888;8.736;2023-06-26T14:04:46;8.23;;;3.65;;
34521;SDS011;25561;48.888;8.736;2023-06-26T14:07:48;11.95;;;4.22;;
34521;SDS011;25561;48.888;8.736;2023-06-26T14:10:50;6.40;;;4.25;;
34521;SDS011;25561;48.888;8.736;2023-06-26T14:13:53;8.38;;;3.50;;
34521;SDS011;25561;48.888;8.736;2023-06-26T14:16:54;9.68;;;4.18;;
34521;SDS011;25561;48.888;8.736;2023-06-26T14:19:56;7.35;;;4.03;;
34521;SDS011;25561;48.888;8.736;2023-06-26T14:22:58;7.50;;;4.88;;
34521;SDS011;25561;48.888;8.736;2023-06-26T14:26:00;8.02;;;4.38;;
34521;SDS011;25561;48.888;8.736;2023-06-26T14:29:02;11.43;;;4.90;;
34521;SDS011;25561;48.888;8.736;2023-06-26T14:32:04;9.20;;;4.97;;
34521;SDS011;25561;48.888;8.736;2023-06-26T14:35:07;10.60;;;5.65;;
34521;SDS011;25561;48.888;8.736;2023-06-26T14:38:09;9.25;;;6.20;;
34521;SDS011;25561;48.888;8.736;2023-06-26T14:41:11;9.25;;;5.63;;
34521;SDS011;25561;48.888;8.736;2023-06-26T14:44:14;10.13;;;5.65;;
34521;SDS011;25561;48.888;8.736;2023-06-26T14:47:17;12.85;;;5.53;;
34521;SDS011;25561;48.888;8.736;2023-06-26T14:50:19;12.38;;;6.10;;
34521;SDS011;25561;48.888;8.736;2023-06-26T14:53:21;10.18;;;6.15;;
34521;SDS011;25561;48.888;8.736;2023-06-26T14:56:22;15.00;;;6.78;;
34521;SDS011;25561;48.888;8.736;2023-06-26T14:59:24;14.38;;;5.95;;
34521;SDS011;25561;48.888;8.736;2023-06-26T15:02:26;10.77;;;6.05;;
34521;SDS011;25561;48.888;8.736;2023-06-26T15:05:28;16.90;;;6.68;;
34521;SDS011;25561;48.888;8.736;2023-06-26T15:08:30;11.43;;;6.32;;
34521;SDS011;25561;48.888;8.736;2023-06-26T15:11:32;10.80;;;6.43;;
34521;SDS011;25561;48.888;8.736;2023-06-26T15:14:33;7.88;;;6.15;;
34521;SDS011;25561;48.888;8.736;2023-06-26T15:17:35;13.93;;;6.82;;
34521;SDS011;25561;48.888;8.736;2023-06-26T15:20:37;10.20;;;6.50;;
34521;SDS011;25561;48.888;8.736;2023-06-26T15:23:39;9.60;;;6.07;;
34521;SDS011;25561;48.888;8.736;2023-06-26T15:26:41;16.52;;;6.93;;
34521;SDS011;25561;48.888;8.736;2023-06-26T15:29:43;11.30;;;6.88;;
34521;SDS011;25561;48.888;8.736;2023-06-26T15:32:45;13.70;;;6.32;;
34521;SDS011;25561;48.888;8.736;2023-06-26T15:35:46;12.13;;;6.10;;
34521;SDS011;25561;48.888;8.736;2023-06-26T15:38:48;11.48;;;6.15;;
34521;SDS011;25561;48.888;8.736;2023-06-26T15:41:50;10.05;;;6.05;;
34521;SDS011;25561;48.888;8.736;2023-06-26T15:44:53;13.95;;;5.07;;
34521;SDS011;25561;48.888;8.736;2023-06-26T15:47:55;13.52;;;6.30;;
34521;SDS011;25561;48.888;8.736;2023-06-26T15:50:57;9.48;;;5.28;;
34521;SDS011;25561;48.888;8.736;2023-06-26T15:53:59;13.88;;;5.15;;
34521;SDS011;25561;48.888;8.736;2023-06-26T15:57:01;10.55;;;4.88;;
34521;SDS011;25561;48.888;8.736;2023-06-26T16:00:04;8.45;;;3.30;;
